sensor_id;sensor_type;location;lat;lon;timestamp;P1;durP1;ratioP1;P2;durP2;ratioP2
55031;SDS011;40928;51.076;7.950;2022-08-01T00:01:39;7.57;;;5.15;;
55031;SDS011;40928;51.076;7.950;2022-08-01T00:04:04;4.97;;;4.07;;
55031;SDS011;40928;51.076;7.950;2022-08-01T00:06:30;11.15;;;4.25;;
55031;SDS011;40928;51.076;7.950;2022-08-01T00:08:56;6.50;;;4.40;;
55031;SDS011;40928;51.076;7.950;2022-08-01T00:11:22;5.28;;;3.65;;
55031;SDS011;40928;51.076;7.950;2022-08-01T00:13:47;7.20;;;3.90;;
55031;SDS011;40928;51.076;7.950;2022-08-01T00:16:13;7.43;;;4.45;;
55031;SDS011;40928;51.076;7.950;2022-08-01T00:18:40;9.52;;;4.57;;
55031;SDS011;40928;51.076;7.950;2022-08-01T00:21:06;7.93;;;3.50;;
55031;SDS011;40928;51.076;7.950;2022-08-01T00:23:32;7.72;;;4.18;;
55031;SDS011;40928;51.076;7.950;2022-08-01T00:25:58;5.18;;;3.10;;
55031;SDS011;40928;51.076;7.950;2022-08-01T00:28:27;5.47;;;3.55;;
55031;SDS011;40928;51.076;7.950;2022-08-01T00:30:52;4.85;;;3.55;;
55031;SDS011;40928;51.076;7.950;2022-08-01T00:33:18;8.10;;;4.25;;
55031;SDS011;40928;51.076;7.950;2022-08-01T00:35:43;5.47;;;4.18;;
55031;SDS011;40928;51.076;7.950;2022-08-01T00:38:09;8.13;;;5.20;;
55031;SDS011;40928;51.076;7.950;2022-08-01T00:40:34;11.05;;;4.95;;
55031;SDS011;40928;51.076;7.950;2022-08-01T00:43:00;8.43;;;5.80;;
55031;SDS011;40928;51.076;7.950;2022-08-01T00:45:25;8.40;;;6.47;;
55031;SDS011;40928;51.076;7.950;2022-08-01T00:47:51;7.38;;;6.18;;
55031;SDS011;40928;51.076;7.950;2022-08-01T00:50:17;9.38;;;5.45;;
55031;SDS011;40928;51.076;7.950;2022-08-01T00:52:42;11.38;;;7.50;;
55031;SDS011;40928;51.076;7.950;2022-08-01T00:55:09;7.45;;;5.70;;
55031;SDS011;40928;51.076;7.950;2022-08-01T00:57:37;6.13;;;4.47;;
55031;SDS011;40928;51.076;7.950;2022-08-01T01:00:04;9.32;;;6.13;;
55031;SDS011;40928;51.076;7.950;2022-08-01T01:02:31;6.65;;;5.28;;
55031;SDS011;40928;51.076;7.950;2022-08-01T01:04:57;5.45;;;4.93;;
55031;SDS011;40928;51.076;7.950;2022-08-01T01:10:17;6.65;;;4.70;;
55031;SDS011;40928;51.076;7.950;2022-08-01T01:13:06;6.43;;;5.75;;
55031;SDS011;40928;51.076;7.950;2022-08-01T01:15:41;5.40;;;4.30;;
55031;SDS011;40928;51.076;7.950;2022-08-01T01:18:11;5.68;;;3.05;;
55031;SDS011;40928;51.076;7.950;2022-08-01T01:20:46;4.00;;;3.60;;
55031;SDS011;40928;51.076;7.950;2022-08-01T01:31:00;4.80;;;3.08;;
55031;SDS011;40928;51.076;7.950;2022-08-01T01:33:32;4.00;;;3.13;;
55031;SDS011;40928;51.076;7.950;2022-08-01T01:36:03;5.07;;;3.20;;
55031;SDS011;40928;51.076;7.950;2022-08-01T01:38:33;4.00;;;3.20;;
55031;SDS011;40928;51.076;7.950;2022-08-01T01:41:03;7.22;;;3.63;;
55031;SDS011;40928;51.076;7.950;2022-08-01T01:43:30;4.18;;;3.78;;
55031;SDS011;40928;51.076;7.950;2022-08-01T01:45:57;5.07;;;3.83;;
55031;SDS011;40928;51.076;7.950;2022-08-01T01:48:25;5.35;;;3.45;;
55031;SDS011;40928;51.076;7.950;2022-08-01T01:50:52;3.55;;;3.25;;
55031;SDS011;40928;51.076;7.950;2022-08-01T01:53:18;4.43;;;3.50;;
55031;SDS011;40928;51.076;7.950;2022-08-01T01:55:48;5.93;;;4.05;;
55031;SDS011;40928;51.076;7.950;2022-08-01T01:58:17;6.53;;;3.60;;
55031;SDS011;40928;51.076;7.950;2022-08-01T02:00:44;4.28;;;3.58;;
55031;SDS011;40928;51.076;7.950;2022-08-01T02:03:12;4.85;;;3.70;;
55031;SDS011;40928;51.076;7.950;2022-08-01T02:05:39;6.18;;;5.07;;
55031;SDS011;40928;51.076;7.950;2022-08-01T02:08:07;7.80;;;4.75;;
55031;SDS011;40928;51.076;7.950;2022-08-01T02:10:34;6.13;;;4.28;;
55031;SDS011;40928;51.076;7.950;2022-08-01T02:13:02;10.82;;;6.00;;
55031;SDS011;40928;51.076;7.950;2022-08-01T02:15:29;9.02;;;6.43;;
55031;SDS011;40928;51.076;7.950;2022-08-01T02:17:56;8.50;;;6.53;;
55031;SDS011;40928;51.076;7.950;2022-08-01T02:20:25;12.10;;;6.47;;
55031;SDS011;40928;51.076;7.950;2022-08-01T02:22:58;10.60;;;6.88;;
55031;SDS011;40928;51.076;7.950;2022-08-01T02:25:48;9.18;;;6.00;;
55031;SDS011;40928;51.076;7.950;2022-08-01T02:28:17;10.02;;;6.78;;
55031;SDS011;40928;51.076;7.950;2022-08-01T02:30:53;13.65;;;7.53;;
55031;SDS011;40928;51.076;7.950;2022-08-01T02:33:23;9.50;;;6.70;;
55031;SDS011;40928;51.076;7.950;2022-08-01T02:35:54;9.75;;;7.20;;
55031;SDS011;40928;51.076;7.950;2022-08-01T02:38:23;13.20;;;8.27;;
55031;SDS011;40928;51.076;7.950;2022-08-01T02:40:52;10.18;;;7.07;;
55031;SDS011;40928;51.076;7.950;2022-08-01T02:43:23;12.25;;;7.68;;
55031;SDS011;40928;51.076;7.950;2022-08-01T02:45:52;7.75;;;6.07;;
55031;SDS011;40928;51.076;7.950;2022-08-01T02:48:23;11.98;;;7.10;;
55031;SDS011;40928;51.076;7.950;2022-08-01T02:50:51;11.60;;;6.68;;
55031;SDS011;40928;51.076;7.950;2022-08-01T02:53:20;9.05;;;6.22;;
55031;SDS011;40928;51.076;7.950;2022-08-01T02:55:48;10.50;;;6.88;;
55031;SDS011;40928;51.076;7.950;2022-08-01T02:58:16;12.07;;;6.85;;
55031;SDS011;40928;51.076;7.950;2022-08-01T03:00:44;10.73;;;7.13;;
55031;SDS011;40928;51.076;7.950;2022-08-01T03:03:11;8.85;;;6.60;;
55031;SDS011;40928;51.076;7.950;2022-08-01T03:05:38;12.00;;;8.00;;
55031;SDS011;40928;51.076;7.950;2022-08-01T03:08:05;11.38;;;8.18;;
55031;SDS011;40928;51.076;7.950;2022-08-01T03:10:33;9.98;;;6.95;;
55031;SDS011;40928;51.076;7.950;2022-08-01T03:13:01;16.92;;;8.63;;
55031;SDS011;40928;51.076;7.950;2022-08-01T03:15:30;9.30;;;7.35;;
55031;SDS011;40928;51.076;7.950;2022-08-01T03:17:58;12.20;;;7.50;;
55031;SDS011;40928;51.076;7.950;2022-08-01T03:20:26;12.13;;;8.00;;
55031;SDS011;40928;51.076;7.950;2022-08-01T03:22:54;12.85;;;8.68;;
55031;SDS011;40928;51.076;7.950;2022-08-01T03:25:23;11.98;;;8.77;;
55031;SDS011;40928;51.076;7.950;2022-08-01T03:27:56;8.75;;;6.47;;
55031;SDS011;40928;51.076;7.950;2022-08-01T03:30:26;11.65;;;7.85;;
55031;SDS011;40928;51.076;7.950;2022-08-01T03:32:53;10.10;;;7.60;;
55031;SDS011;40928;51.076;7.950;2022-08-01T03:35:20;12.98;;;7.75;;
55031;SDS011;40928;51.076;7.950;2022-08-01T03:37:49;9.15;;;7.05;;
55031;SDS011;40928;51.076;7.950;2022-08-01T03:43:14;10.15;;;7.30;;
55031;SDS011;40928;51.076;7.950;2022-08-01T03:45:45;12.55;;;7.95;;
55031;SDS011;40928;51.076;7.950;2022-08-01T03:48:14;9.27;;;7.15;;
55031;SDS011;40928;51.076;7.950;2022-08-01T03:50:43;8.68;;;6.32;;
55031;SDS011;40928;51.076;7.950;2022-08-01T03:53:11;7.10;;;5.85;;
55031;SDS011;40928;51.076;7.950;2022-08-01T03:55:39;7.70;;;5.55;;
55031;SDS011;40928;51.076;7.950;2022-08-01T03:58:08;8.20;;;6.28;;
55031;SDS011;40928;51.076;7.950;2022-08-01T04:00:38;10.75;;;7.57;;
55031;SDS011;40928;51.076;7.950;2022-08-01T04:03:08;7.72;;;5.95;;
55031;SDS011;40928;51.076;7.950;2022-08-01T04:05:34;5.90;;;4.80;;
55031;SDS011;40928;51.076;7.950;2022-08-01T04:08:00;6.90;;;5.35;;
55031;SDS011;40928;51.076;7.950;2022-08-01T04:10:27;11.98;;;8.23;;
55031;SDS011;40928;51.076;7.950;2022-08-01T04:12:53;8.68;;;6.32;;
55031;SDS011;40928;51.076;7.950;2022-08-01T04:15:19;8.02;;;5.07;;
55031;SDS011;40928;51.076;7.950;2022-08-01T04:17:47;11.02;;;7.90;;
55031;SDS011;40928;51.076;7.950;2022-08-01T04:20:13;8.02;;;6.45;;
55031;SDS011;40928;51.076;7.950;2022-08-01T04:22:39;10.32;;;6.90;;
55031;SDS011;40928;51.076;7.950;2022-08-01T04:25:07;10.90;;;7.88;;
55031;SDS011;40928;51.076;7.950;2022-08-01T04:27:38;11.65;;;7.25;;
55031;SDS011;40928;51.076;7.950;2022-08-01T04:30:08;8.30;;;6.00;;
55031;SDS011;40928;51.076;7.950;2022-08-01T04:32:36;12.75;;;7.25;;
55031;SDS011;40928;51.076;7.950;2022-08-01T04:35:06;15.63;;;11.02;;
55031;SDS011;40928;51.076;7.950;2022-08-01T04:37:35;14.77;;;9.85;;
55031;SDS011;40928;51.076;7.950;2022-08-01T04:40:05;16.02;;;10.77;;
55031;SDS011;40928;51.076;7.950;2022-08-01T04:42:32;16.73;;;9.88;;
55031;SDS011;40928;51.076;7.950;2022-08-01T04:44:58;17.13;;;10.48;;
55031;SDS011;40928;51.076;7.950;2022-08-01T04:47:25;17.00;;;10.82;;
55031;SDS011;40928;51.076;7.950;2022-08-01T04:49:51;19.80;;;11.30;;
55031;SDS011;40928;51.076;7.950;2022-08-01T04:52:17;16.58;;;9.82;;
55031;SDS011;40928;51.076;7.950;2022-08-01T04:54:43;15.85;;;10.77;;
55031;SDS011;40928;51.076;7.950;2022-08-01T04:57:09;19.15;;;11.48;;
55031;SDS011;40928;51.076;7.950;2022-08-01T04:59:35;18.60;;;12.20;;
55031;SDS011;40928;51.076;7.950;2022-08-01T05:02:13;20.35;;;11.50;;
55031;SDS011;40928;51.076;7.950;2022-08-01T05:04:41;24.05;;;12.75;;
55031;SDS011;40928;51.076;7.950;2022-08-01T05:07:09;14.43;;;9.82;;
55031;SDS011;40928;51.076;7.950;2022-08-01T05:09:35;16.20;;;9.68;;
55031;SDS011;40928;51.076;7.950;2022-08-01T05:12:02;20.20;;;11.38;;
55031;SDS011;40928;51.076;7.950;2022-08-01T05:14:30;18.55;;;11.23;;
55031;SDS011;40928;51.076;7.950;2022-08-01T05:17:00;14.95;;;10.50;;
55031;SDS011;40928;51.076;7.950;2022-08-01T05:19:28;16.90;;;11.02;;
55031;SDS011;40928;51.076;7.950;2022-08-01T05:21:57;17.88;;;10.20;;
55031;SDS011;40928;51.076;7.950;2022-08-01T05:24:26;18.75;;;11.55;;
55031;SDS011;40928;51.076;7.950;2022-08-01T05:26:53;17.25;;;10.52;;
55031;SDS011;40928;51.076;7.950;2022-08-01T05:29:20;20.80;;;12.30;;
55031;SDS011;40928;51.076;7.950;2022-08-01T05:31:45;21.42;;;11.13;;
55031;SDS011;40928;51.076;7.950;2022-08-01T05:34:11;15.48;;;10.32;;
55031;SDS011;40928;51.076;7.950;2022-08-01T05:36:36;19.58;;;11.27;;
55031;SDS011;40928;51.076;7.950;2022-08-01T05:39:03;14.90;;;9.70;;
55031;SDS011;40928;51.076;7.950;2022-08-01T05:41:32;20.63;;;10.52;;
55031;SDS011;40928;51.076;7.950;2022-08-01T05:43:58;11.80;;;8.77;;
55031;SDS011;40928;51.076;7.950;2022-08-01T05:46:23;15.18;;;9.45;;
55031;SDS011;40928;51.076;7.950;2022-08-01T05:48:49;18.35;;;10.55;;
55031;SDS011;40928;51.076;7.950;2022-08-01T05:51:14;34.97;;;14.13;;
55031;SDS011;40928;51.076;7.950;2022-08-01T05:53:39;22.38;;;11.55;;
55031;SDS011;40928;51.076;7.950;2022-08-01T05:56:05;18.58;;;11.15;;
55031;SDS011;40928;51.076;7.950;2022-08-01T05:58:30;18.23;;;11.75;;
55031;SDS011;40928;51.076;7.950;2022-08-01T06:00:57;17.30;;;10.05;;
55031;SDS011;40928;51.076;7.950;2022-08-01T06:03:44;24.33;;;12.07;;
55031;SDS011;40928;51.076;7.950;2022-08-01T06:06:24;17.27;;;9.73;;
55031;SDS011;40928;51.076;7.950;2022-08-01T06:08:50;14.23;;;9.60;;
55031;SDS011;40928;51.076;7.950;2022-08-01T06:11:17;18.20;;;11.77;;
55031;SDS011;40928;51.076;7.950;2022-08-01T06:13:42;20.17;;;10.98;;
55031;SDS011;40928;51.076;7.950;2022-08-01T06:16:07;15.57;;;9.30;;
55031;SDS011;40928;51.076;7.950;2022-08-01T06:18:33;19.70;;;10.98;;
55031;SDS011;40928;51.076;7.950;2022-08-01T06:20:58;16.25;;;10.48;;
55031;SDS011;40928;51.076;7.950;2022-08-01T06:23:24;17.02;;;10.25;;
55031;SDS011;40928;51.076;7.950;2022-08-01T06:25:53;12.88;;;8.48;;
55031;SDS011;40928;51.076;7.950;2022-08-01T06:28:19;13.45;;;8.88;;
55031;SDS011;40928;51.076;7.950;2022-08-01T06:30:45;12.80;;;9.10;;
55031;SDS011;40928;51.076;7.950;2022-08-01T06:33:11;15.00;;;9.10;;
55031;SDS011;40928;51.076;7.950;2022-08-01T06:35:36;12.02;;;8.13;;
55031;SDS011;40928;51.076;7.950;2022-08-01T06:38:02;13.52;;;9.80;;
55031;SDS011;40928;51.076;7.950;2022-08-01T06:40:28;16.85;;;10.88;;
55031;SDS011;40928;51.076;7.950;2022-08-01T06:42:53;11.70;;;8.57;;
55031;SDS011;40928;51.076;7.950;2022-08-01T06:45:19;18.77;;;10.20;;
55031;SDS011;40928;51.076;7.950;2022-08-01T06:47:47;13.20;;;8.70;;
55031;SDS011;40928;51.076;7.950;2022-08-01T06:50:13;17.13;;;11.23;;
55031;SDS011;40928;51.076;7.950;2022-08-01T06:52:39;15.18;;;10.43;;
55031;SDS011;40928;51.076;7.950;2022-08-01T06:55:06;16.38;;;8.32;;
55031;SDS011;40928;51.076;7.950;2022-08-01T06:57:31;14.73;;;10.48;;
55031;SDS011;40928;51.076;7.950;2022-08-01T07:00:00;16.58;;;10.45;;
55031;SDS011;40928;51.076;7.950;2022-08-01T07:02:27;17.92;;;11.23;;
55031;SDS011;40928;51.076;7.950;2022-08-01T07:04:53;20.80;;;11.70;;
55031;SDS011;40928;51.076;7.950;2022-08-01T07:07:18;19.73;;;11.32;;
55031;SDS011;40928;51.076;7.950;2022-08-01T07:09:44;15.60;;;10.23;;
55031;SDS011;40928;51.076;7.950;2022-08-01T07:12:09;17.95;;;10.98;;
55031;SDS011;40928;51.076;7.950;2022-08-01T07:14:36;18.38;;;11.43;;
55031;SDS011;40928;51.076;7.950;2022-08-01T07:17:01;15.57;;;10.80;;
55031;SDS011;40928;51.076;7.950;2022-08-01T07:19:27;16.10;;;11.27;;
55031;SDS011;40928;51.076;7.950;2022-08-01T07:21:53;21.23;;;11.95;;
55031;SDS011;40928;51.076;7.950;2022-08-01T07:24:18;15.80;;;11.25;;
55031;SDS011;40928;51.076;7.950;2022-08-01T07:26:46;17.13;;;11.27;;
55031;SDS011;40928;51.076;7.950;2022-08-01T07:29:13;15.68;;;10.88;;
55031;SDS011;40928;51.076;7.950;2022-08-01T07:31:39;16.52;;;11.13;;
55031;SDS011;40928;51.076;7.950;2022-08-01T07:34:07;13.60;;;10.18;;
55031;SDS011;40928;51.076;7.950;2022-08-01T07:36:33;17.83;;;11.73;;
55031;SDS011;40928;51.076;7.950;2022-08-01T07:38:59;14.70;;;10.98;;
55031;SDS011;40928;51.076;7.950;2022-08-01T07:41:24;16.30;;;10.25;;
55031;SDS011;40928;51.076;7.950;2022-08-01T07:43:50;13.63;;;10.52;;
55031;SDS011;40928;51.076;7.950;2022-08-01T07:46:16;15.02;;;11.13;;
55031;SDS011;40928;51.076;7.950;2022-08-01T07:48:42;19.92;;;11.70;;
55031;SDS011;40928;51.076;7.950;2022-08-01T07:51:08;17.60;;;10.27;;
55031;SDS011;40928;51.076;7.950;2022-08-01T07:53:35;16.48;;;10.73;;
55031;SDS011;40928;51.076;7.950;2022-08-01T07:56:01;13.77;;;11.02;;
55031;SDS011;40928;51.076;7.950;2022-08-01T07:58:27;15.93;;;11.32;;
55031;SDS011;40928;51.076;7.950;2022-08-01T08:00:53;16.80;;;12.00;;
55031;SDS011;40928;51.076;7.950;2022-08-01T08:03:19;17.77;;;11.70;;
55031;SDS011;40928;51.076;7.950;2022-08-01T08:05:44;14.55;;;10.10;;
55031;SDS011;40928;51.076;7.950;2022-08-01T08:08:10;15.00;;;10.93;;
55031;SDS011;40928;51.076;7.950;2022-08-01T08:10:36;17.45;;;11.05;;
55031;SDS011;40928;51.076;7.950;2022-08-01T08:13:02;15.02;;;11.35;;
55031;SDS011;40928;51.076;7.950;2022-08-01T08:15:28;15.90;;;11.65;;
55031;SDS011;40928;51.076;7.950;2022-08-01T08:17:54;12.63;;;10.32;;
55031;SDS011;40928;51.076;7.950;2022-08-01T08:20:19;11.68;;;9.32;;
55031;SDS011;40928;51.076;7.950;2022-08-01T08:22:50;12.00;;;8.75;;
55031;SDS011;40928;51.076;7.950;2022-08-01T08:25:16;12.13;;;8.60;;
55031;SDS011;40928;51.076;7.950;2022-08-01T08:27:44;11.73;;;7.80;;
55031;SDS011;40928;51.076;7.950;2022-08-01T08:30:12;12.05;;;8.90;;
55031;SDS011;40928;51.076;7.950;2022-08-01T08:32:38;11.77;;;8.38;;
55031;SDS011;40928;51.076;7.950;2022-08-01T08:35:05;9.77;;;7.97;;
55031;SDS011;40928;51.076;7.950;2022-08-01T08:37:31;9.85;;;7.15;;
55031;SDS011;40928;51.076;7.950;2022-08-01T08:39:58;10.02;;;8.00;;
55031;SDS011;40928;51.076;7.950;2022-08-01T08:42:24;9.25;;;7.30;;
55031;SDS011;40928;51.076;7.950;2022-08-01T08:44:50;8.77;;;7.20;;
55031;SDS011;40928;51.076;7.950;2022-08-01T08:47:16;9.10;;;7.07;;
55031;SDS011;40928;51.076;7.950;2022-08-01T08:49:43;8.65;;;6.72;;
55031;SDS011;40928;51.076;7.950;2022-08-01T08:52:09;11.30;;;7.60;;
55031;SDS011;40928;51.076;7.950;2022-08-01T08:54:36;12.63;;;7.30;;
55031;SDS011;40928;51.076;7.950;2022-08-01T08:57:04;11.20;;;7.50;;
55031;SDS011;40928;51.076;7.950;2022-08-01T08:59:30;9.80;;;7.13;;
55031;SDS011;40928;51.076;7.950;2022-08-01T09:01:57;10.23;;;7.32;;
55031;SDS011;40928;51.076;7.950;2022-08-01T09:04:24;9.35;;;7.40;;
55031;SDS011;40928;51.076;7.950;2022-08-01T09:06:51;9.88;;;7.50;;
55031;SDS011;40928;51.076;7.950;2022-08-01T09:09:18;10.35;;;7.60;;
55031;SDS011;40928;51.076;7.950;2022-08-01T09:11:44;10.13;;;6.75;;
55031;SDS011;40928;51.076;7.950;2022-08-01T09:16:41;11.52;;;7.55;;
55031;SDS011;40928;51.076;7.950;2022-08-01T09:19:10;10.80;;;8.00;;
55031;SDS011;40928;51.076;7.950;2022-08-01T09:21:40;11.85;;;8.48;;
55031;SDS011;40928;51.076;7.950;2022-08-01T09:24:22;10.85;;;8.57;;
55031;SDS011;40928;51.076;7.950;2022-08-01T09:26:48;12.25;;;9.23;;
55031;SDS011;40928;51.076;7.950;2022-08-01T09:29:22;11.70;;;8.32;;
55031;SDS011;40928;51.076;7.950;2022-08-01T09:31:54;10.55;;;8.52;;
55031;SDS011;40928;51.076;7.950;2022-08-01T09:34:30;9.02;;;6.70;;
55031;SDS011;40928;51.076;7.950;2022-08-01T09:36:59;9.07;;;7.40;;
55031;SDS011;40928;51.076;7.950;2022-08-01T09:39:27;9.10;;;8.05;;
55031;SDS011;40928;51.076;7.950;2022-08-01T09:41:57;8.85;;;7.43;;
55031;SDS011;40928;51.076;7.950;2022-08-01T09:44:43;8.50;;;6.90;;
55031;SDS011;40928;51.076;7.950;2022-08-01T09:47:12;9.57;;;6.85;;
55031;SDS011;40928;51.076;7.950;2022-08-01T09:49:38;8.85;;;7.32;;
55031;SDS011;40928;51.076;7.950;2022-08-01T09:54:37;10.27;;;6.38;;
55031;SDS011;40928;51.076;7.950;2022-08-01T09:57:13;6.75;;;5.05;;
55031;SDS011;40928;51.076;7.950;2022-08-01T09:59:42;8.77;;;5.45;;
55031;SDS011;40928;51.076;7.950;2022-08-01T10:02:10;7.28;;;5.70;;
55031;SDS011;40928;51.076;7.950;2022-08-01T10:04:50;6.00;;;4.72;;
55031;SDS011;40928;51.076;7.950;2022-08-01T10:07:17;7.32;;;5.95;;
55031;SDS011;40928;51.076;7.950;2022-08-01T10:09:43;6.07;;;4.60;;
55031;SDS011;40928;51.076;7.950;2022-08-01T10:12:12;5.35;;;3.92;;
55031;SDS011;40928;51.076;7.950;2022-08-01T10:14:39;6.32;;;3.90;;
55031;SDS011;40928;51.076;7.950;2022-08-01T10:17:07;6.25;;;3.47;;
55031;SDS011;40928;51.076;7.950;2022-08-01T10:19:34;3.92;;;3.53;;
55031;SDS011;40928;51.076;7.950;2022-08-01T10:22:00;4.30;;;3.65;;
55031;SDS011;40928;51.076;7.950;2022-08-01T10:24:28;4.45;;;3.28;;
55031;SDS011;40928;51.076;7.950;2022-08-01T10:26:55;5.75;;;3.80;;
55031;SDS011;40928;51.076;7.950;2022-08-01T10:29:27;4.25;;;3.30;;
55031;SDS011;40928;51.076;7.950;2022-08-01T10:31:53;3.17;;;2.88;;
55031;SDS011;40928;51.076;7.950;2022-08-01T10:34:19;3.47;;;2.08;;
55031;SDS011;40928;51.076;7.950;2022-08-01T10:36:45;4.60;;;2.33;;
55031;SDS011;40928;51.076;7.950;2022-08-01T10:39:11;2.10;;;1.70;;
55031;SDS011;40928;51.076;7.950;2022-08-01T10:41:38;4.28;;;2.15;;
55031;SDS011;40928;51.076;7.950;2022-08-01T10:44:05;3.25;;;2.90;;
55031;SDS011;40928;51.076;7.950;2022-08-01T10:46:31;2.80;;;1.90;;
55031;SDS011;40928;51.076;7.950;2022-08-01T10:49:12;2.75;;;2.45;;
55031;SDS011;40928;51.076;7.950;2022-08-01T10:51:40;3.38;;;2.10;;
55031;SDS011;40928;51.076;7.950;2022-08-01T10:54:07;2.97;;;2.15;;
55031;SDS011;40928;51.076;7.950;2022-08-01T10:56:38;2.88;;;2.45;;
55031;SDS011;40928;51.076;7.950;2022-08-01T10:59:08;2.10;;;1.90;;
55031;SDS011;40928;51.076;7.950;2022-08-01T11:01:34;2.25;;;2.05;;
55031;SDS011;40928;51.076;7.950;2022-08-01T11:09:04;4.80;;;2.13;;
55031;SDS011;40928;51.076;7.950;2022-08-01T11:14:34;3.10;;;1.55;;
55031;SDS011;40928;51.076;7.950;2022-08-01T11:20:04;2.38;;;2.17;;
55031;SDS011;40928;51.076;7.950;2022-08-01T11:30:43;3.25;;;1.55;;
55031;SDS011;40928;51.076;7.950;2022-08-01T11:33:09;1.90;;;1.73;;
55031;SDS011;40928;51.076;7.950;2022-08-01T11:35:36;3.40;;;1.88;;
55031;SDS011;40928;51.076;7.950;2022-08-01T11:38:25;2.53;;;1.80;;
55031;SDS011;40928;51.076;7.950;2022-08-01T11:41:09;2.88;;;2.00;;
55031;SDS011;40928;51.076;7.950;2022-08-01T11:43:36;3.78;;;2.33;;
55031;SDS011;40928;51.076;7.950;2022-08-01T11:46:19;2.75;;;2.47;;
55031;SDS011;40928;51.076;7.950;2022-08-01T11:48:45;2.42;;;2.08;;
55031;SDS011;40928;51.076;7.950;2022-08-01T11:51:15;2.10;;;1.90;;
55031;SDS011;40928;51.076;7.950;2022-08-01T11:53:47;2.67;;;2.10;;
55031;SDS011;40928;51.076;7.950;2022-08-01T11:56:14;2.55;;;2.22;;
55031;SDS011;40928;51.076;7.950;2022-08-01T11:58:41;2.85;;;2.15;;
55031;SDS011;40928;51.076;7.950;2022-08-01T12:01:06;2.38;;;2.10;;
55031;SDS011;40928;51.076;7.950;2022-08-01T12:03:40;3.70;;;2.15;;
55031;SDS011;40928;51.076;7.950;2022-08-01T12:06:06;2.30;;;2.10;;
55031;SDS011;40928;51.076;7.950;2022-08-01T12:08:32;2.65;;;2.20;;
55031;SDS011;40928;51.076;7.950;2022-08-01T12:11:00;4.03;;;2.45;;
55031;SDS011;40928;51.076;7.950;2022-08-01T12:13:28;2.80;;;2.42;;
55031;SDS011;40928;51.076;7.950;2022-08-01T12:16:08;2.28;;;2.08;;
55031;SDS011;40928;51.076;7.950;2022-08-01T12:18:39;2.17;;;1.98;;
55031;SDS011;40928;51.076;7.950;2022-08-01T12:21:06;2.40;;;2.20;;
55031;SDS011;40928;51.076;7.950;2022-08-01T12:23:31;2.72;;;2.00;;
55031;SDS011;40928;51.076;7.950;2022-08-01T12:26:00;2.33;;;1.90;;
55031;SDS011;40928;51.076;7.950;2022-08-01T12:28:26;2.75;;;1.98;;
55031;SDS011;40928;51.076;7.950;2022-08-01T12:30:52;2.13;;;1.67;;
55031;SDS011;40928;51.076;7.950;2022-08-01T12:33:18;1.77;;;1.60;;
55031;SDS011;40928;51.076;7.950;2022-08-01T12:35:45;1.90;;;1.67;;
55031;SDS011;40928;51.076;7.950;2022-08-01T12:38:15;1.92;;;1.50;;
55031;SDS011;40928;51.076;7.950;2022-08-01T12:40:47;5.32;;;1.17;;
55031;SDS011;40928;51.076;7.950;2022-08-01T12:43:16;1.92;;;1.02;;
55031;SDS011;40928;51.076;7.950;2022-08-01T12:45:44;2.17;;;1.40;;
55031;SDS011;40928;51.076;7.950;2022-08-01T12:48:12;1.65;;;1.15;;
55031;SDS011;40928;51.076;7.950;2022-08-01T12:50:43;1.38;;;1.13;;
55031;SDS011;40928;51.076;7.950;2022-08-01T12:53:10;1.73;;;1.25;;
55031;SDS011;40928;51.076;7.950;2022-08-01T12:55:54;2.08;;;1.10;;
55031;SDS011;40928;51.076;7.950;2022-08-01T12:58:20;4.18;;;1.20;;
55031;SDS011;40928;51.076;7.950;2022-08-01T13:00:47;2.28;;;1.10;;
55031;SDS011;40928;51.076;7.950;2022-08-01T13:05:49;1.13;;;0.90;;
55031;SDS011;40928;51.076;7.950;2022-08-01T13:08:22;1.98;;;1.00;;
55031;SDS011;40928;51.076;7.950;2022-08-01T13:10:50;1.85;;;1.10;;
55031;SDS011;40928;51.076;7.950;2022-08-01T13:13:24;1.38;;;1.13;;
55031;SDS011;40928;51.076;7.950;2022-08-01T13:16:02;2.33;;;1.50;;
55031;SDS011;40928;51.076;7.950;2022-08-01T13:18:31;2.08;;;1.35;;
55031;SDS011;40928;51.076;7.950;2022-08-01T13:23:40;1.70;;;1.20;;
55031;SDS011;40928;51.076;7.950;2022-08-01T13:26:08;1.90;;;1.27;;
55031;SDS011;40928;51.076;7.950;2022-08-01T13:28:34;1.60;;;1.00;;
55031;SDS011;40928;51.076;7.950;2022-08-01T13:33:44;1.08;;;0.98;;
55031;SDS011;40928;51.076;7.950;2022-08-01T13:36:11;1.20;;;1.10;;
55031;SDS011;40928;51.076;7.950;2022-08-01T13:38:38;2.75;;;1.20;;
55031;SDS011;40928;51.076;7.950;2022-08-01T13:41:23;1.98;;;1.35;;
55031;SDS011;40928;51.076;7.950;2022-08-01T13:43:49;1.42;;;1.00;;
55031;SDS011;40928;51.076;7.950;2022-08-01T13:46:14;1.20;;;1.02;;
55031;SDS011;40928;51.076;7.950;2022-08-01T13:48:40;2.08;;;1.08;;
55031;SDS011;40928;51.076;7.950;2022-08-01T13:51:06;1.33;;;1.02;;
55031;SDS011;40928;51.076;7.950;2022-08-01T13:53:32;1.38;;;1.10;;
55031;SDS011;40928;51.076;7.950;2022-08-01T13:55:57;3.15;;;1.45;;
55031;SDS011;40928;51.076;7.950;2022-08-01T13:58:23;1.10;;;0.73;;
55031;SDS011;40928;51.076;7.950;2022-08-01T14:00:48;1.10;;;1.00;;
55031;SDS011;40928;51.076;7.950;2022-08-01T14:03:14;1.15;;;1.00;;
55031;SDS011;40928;51.076;7.950;2022-08-01T14:05:42;1.95;;;1.00;;
55031;SDS011;40928;51.076;7.950;2022-08-01T14:08:10;1.30;;;1.00;;
55031;SDS011;40928;51.076;7.950;2022-08-01T14:10:36;1.20;;;0.90;;
55031;SDS011;40928;51.076;7.950;2022-08-01T14:13:01;1.77;;;1.38;;
55031;SDS011;40928;51.076;7.950;2022-08-01T14:15:27;1.95;;;1.60;;
55031;SDS011;40928;51.076;7.950;2022-08-01T14:17:52;2.67;;;1.23;;
55031;SDS011;40928;51.076;7.950;2022-08-01T14:20:18;1.50;;;1.40;;
55031;SDS011;40928;51.076;7.950;2022-08-01T14:22:45;6.45;;;1.38;;
55031;SDS011;40928;51.076;7.950;2022-08-01T14:25:11;4.05;;;1.30;;
55031;SDS011;40928;51.076;7.950;2022-08-01T14:27:36;1.45;;;1.00;;
55031;SDS011;40928;51.076;7.950;2022-08-01T14:30:06;3.85;;;1.27;;
55031;SDS011;40928;51.076;7.950;2022-08-01T14:32:32;1.42;;;0.82;;
55031;SDS011;40928;51.076;7.950;2022-08-01T14:34:59;2.40;;;1.00;;
55031;SDS011;40928;51.076;7.950;2022-08-01T14:37:25;1.67;;;1.02;;
55031;SDS011;40928;51.076;7.950;2022-08-01T14:39:51;1.25;;;1.15;;
55031;SDS011;40928;51.076;7.950;2022-08-01T14:42:16;3.38;;;1.10;;
55031;SDS011;40928;51.076;7.950;2022-08-01T14:44:41;1.58;;;0.80;;
55031;SDS011;40928;51.076;7.950;2022-08-01T14:47:07;0.82;;;0.70;;
55031;SDS011;40928;51.076;7.950;2022-08-01T14:49:32;1.35;;;0.70;;
55031;SDS011;40928;51.076;7.950;2022-08-01T14:52:01;1.73;;;1.05;;
55031;SDS011;40928;51.076;7.950;2022-08-01T14:54:27;1.15;;;0.85;;
55031;SDS011;40928;51.076;7.950;2022-08-01T14:56:52;1.85;;;0.90;;
55031;SDS011;40928;51.076;7.950;2022-08-01T14:59:18;2.30;;;0.80;;
55031;SDS011;40928;51.076;7.950;2022-08-01T15:01:44;4.28;;;0.88;;
55031;SDS011;40928;51.076;7.950;2022-08-01T15:04:10;1.40;;;0.65;;
55031;SDS011;40928;51.076;7.950;2022-08-01T15:06:35;0.80;;;0.60;;
55031;SDS011;40928;51.076;7.950;2022-08-01T15:09:01;0.98;;;0.77;;
55031;SDS011;40928;51.076;7.950;2022-08-01T15:11:27;1.20;;;0.68;;
55031;SDS011;40928;51.076;7.950;2022-08-01T15:13:53;0.80;;;0.70;;
55031;SDS011;40928;51.076;7.950;2022-08-01T15:16:37;2.43;;;0.77;;
55031;SDS011;40928;51.076;7.950;2022-08-01T15:19:03;1.35;;;1.00;;
55031;SDS011;40928;51.076;7.950;2022-08-01T15:21:28;1.27;;;0.77;;
55031;SDS011;40928;51.076;7.950;2022-08-01T15:23:54;2.42;;;0.90;;
55031;SDS011;40928;51.076;7.950;2022-08-01T15:26:19;1.02;;;0.85;;
55031;SDS011;40928;51.076;7.950;2022-08-01T15:28:45;1.30;;;0.80;;
55031;SDS011;40928;51.076;7.950;2022-08-01T15:31:11;4.47;;;0.90;;